sensor_id;sensor_type;location;lat;lon;timestamp;temperature;humidity
25248;DHT22;13191;47.472;11.214;2023-03-03T00:00:16;1.00;99.90
25248;DHT22;13191;47.472;11.214;2023-03-03T00:02:42;1.00;99.90
25248;DHT22;13191;47.472;11.214;2023-03-03T00:05:08;1.00;99.90
25248;DHT22;13191;47.472;11.214;2023-03-03T00:07:33;1.00;99.90
25248;DHT22;13191;47.472;11.214;2023-03-03T00:09:59;1.00;99.90
25248;DHT22;13191;47.472;11.214;2023-03-03T00:12:26;1.10;99.90
25248;DHT22;13191;47.472;11.214;2023-03-03T00:14:52;1.10;99.90
25248;DHT22;13191;47.472;11.214;2023-03-03T00:17:23;1.10;99.90
25248;DHT22;13191;47.472;11.214;2023-03-03T00:19:49;1.10;99.90
25248;DHT22;13191;47.472;11.214;2023-03-03T00:22:20;1.10;99.90
25248;DHT22;13191;47.472;11.214;2023-03-03T00:24:47;1.10;99.90
25248;DHT22;13191;47.472;11.214;2023-03-03T00:27:28;1.20;99.90
25248;DHT22;13191;47.472;11.214;2023-03-03T00:29:58;1.20;99.90
25248;DHT22;13191;47.472;11.214;2023-03-03T00:32:26;1.20;99.90
25248;DHT22;13191;47.472;11.214;2023-03-03T00:34:53;1.10;99.90
25248;DHT22;13191;47.472;11.214;2023-03-03T00:37:30;1.10;99.90
25248;DHT22;13191;47.472;11.214;2023-03-03T00:42:40;1.20;99.90
25248;DHT22;13191;47.472;11.214;2023-03-03T00:45:17;1.30;99.90
25248;DHT22;13191;47.472;11.214;2023-03-03T00:47:47;1.30;99.90
25248;DHT22;13191;47.472;11.214;2023-03-03T00:50:29;1.40;99.90
25248;DHT22;13191;47.472;11.214;2023-03-03T00:53:03;1.40;99.90
25248;DHT22;13191;47.472;11.214;2023-03-03T00:55:28;1.40;99.90
25248;DHT22;13191;47.472;11.214;2023-03-03T00:57:54;1.50;99.90
25248;DHT22;13191;47.472;11.214;2023-03-03T01:00:20;1.50;99.90
25248;DHT22;13191;47.472;11.214;2023-03-03T01:02:45;1.50;99.90
25248;DHT22;13191;47.472;11.214;2023-03-03T01:05:14;1.60;99.90
25248;DHT22;13191;47.472;11.214;2023-03-03T01:07:40;1.60;99.90
25248;DHT22;13191;47.472;11.214;2023-03-03T01:10:05;1.60;99.90
25248;DHT22;13191;47.472;11.214;2023-03-03T01:12:31;1.60;99.90
25248;DHT22;13191;47.472;11.214;2023-03-03T01:14:57;1.70;99.90
25248;DHT22;13191;47.472;11.214;2023-03-03T01:17:22;1.70;99.90
25248;DHT22;13191;47.472;11.214;2023-03-03T01:19:48;1.70;99.90
25248;DHT22;13191;47.472;11.214;2023-03-03T01:22:13;1.70;99.90
25248;DHT22;13191;47.472;11.214;2023-03-03T01:24:39;1.80;99.90
25248;DHT22;13191;47.472;11.214;2023-03-03T01:27:04;1.80;99.90
25248;DHT22;13191;47.472;11.214;2023-03-03T01:29:30;1.80;99.90
25248;DHT22;13191;47.472;11.214;2023-03-03T01:31:55;1.80;99.90
25248;DHT22;13191;47.472;11.214;2023-03-03T01:34:21;1.80;99.90
25248;DHT22;13191;47.472;11.214;2023-03-03T01:36:46;1.90;99.90
25248;DHT22;13191;47.472;11.214;2023-03-03T01:39:12;1.90;99.90
25248;DHT22;13191;47.472;11.214;2023-03-03T01:41:37;1.90;99.90
25248;DHT22;13191;47.472;11.214;2023-03-03T01:44:03;1.90;99.90
25248;DHT22;13191;47.472;11.214;2023-03-03T01:46:33;2.00;99.90
25248;DHT22;13191;47.472;11.214;2023-03-03T01:49:04;2.00;99.90
25248;DHT22;13191;47.472;11.214;2023-03-03T01:51:31;2.00;99.90
25248;DHT22;13191;47.472;11.214;2023-03-03T01:54:02;2.00;99.90
25248;DHT22;13191;47.472;11.214;2023-03-03T01:56:28;2.10;99.90
25248;DHT22;13191;47.472;11.214;2023-03-03T01:59:03;2.10;99.90
25248;DHT22;13191;47.472;11.214;2023-03-03T02:01:30;2.10;99.90
25248;DHT22;13191;47.472;11.214;2023-03-03T02:03:57;2.10;99.90
25248;DHT22;13191;47.472;11.214;2023-03-03T02:06:23;2.10;99.90
25248;DHT22;13191;47.472;11.214;2023-03-03T02:08:51;2.10;99.90
25248;DHT22;13191;47.472;11.214;2023-03-03T02:11:18;2.10;99.90
25248;DHT22;13191;47.472;11.214;2023-03-03T02:13:44;2.10;99.90
25248;DHT22;13191;47.472;11.214;2023-03-03T02:16:10;2.10;99.90
25248;DHT22;13191;47.472;11.214;2023-03-03T02:18:35;2.20;99.90
25248;DHT22;13191;47.472;11.214;2023-03-03T02:26:18;2.20;99.90
25248;DHT22;13191;47.472;11.214;2023-03-03T02:28:46;2.20;99.90
25248;DHT22;13191;47.472;11.214;2023-03-03T02:31:13;2.20;99.90
25248;DHT22;13191;47.472;11.214;2023-03-03T02:33:43;2.20;99.90
25248;DHT22;13191;47.472;11.214;2023-03-03T02:36:11;2.30;99.90
25248;DHT22;13191;47.472;11.214;2023-03-03T02:38:42;2.30;99.90
25248;DHT22;13191;47.472;11.214;2023-03-03T02:44:00;2.40;99.90
25248;DHT22;13191;47.472;11.214;2023-03-03T02:46:26;2.40;99.90
25248;DHT22;13191;47.472;11.214;2023-03-03T02:48:52;2.40;99.90
25248;DHT22;13191;47.472;11.214;2023-03-03T02:51:17;2.40;99.90
25248;DHT22;13191;47.472;11.214;2023-03-03T02:53:43;2.40;99.90
25248;DHT22;13191;47.472;11.214;2023-03-03T02:56:08;2.40;99.90
25248;DHT22;13191;47.472;11.214;2023-03-03T02:58:34;2.50;99.90
25248;DHT22;13191;47.472;11.214;2023-03-03T03:01:00;2.50;99.90
25248;DHT22;13191;47.472;11.214;2023-03-03T03:03:26;2.50;99.90
25248;DHT22;13191;47.472;11.214;2023-03-03T03:05:51;2.50;99.90
25248;DHT22;13191;47.472;11.214;2023-03-03T03:08:17;2.50;99.90
25248;DHT22;13191;47.472;11.214;2023-03-03T03:10:42;2.60;99.90
25248;DHT22;13191;47.472;11.214;2023-03-03T03:13:08;2.50;99.90
25248;DHT22;13191;47.472;11.214;2023-03-03T03:15:34;2.60;99.90
25248;DHT22;13191;47.472;11.214;2023-03-03T03:17:59;2.50;99.90
25248;DHT22;13191;47.472;11.214;2023-03-03T03:20:25;2.40;99.90
25248;DHT22;13191;47.472;11.214;2023-03-03T03:22:50;2.50;99.90
25248;DHT22;13191;47.472;11.214;2023-03-03T03:25:16;2.50;99.90
25248;DHT22;13191;47.472;11.214;2023-03-03T03:27:41;2.50;99.90
25248;DHT22;13191;47.472;11.214;2023-03-03T03:30:07;2.50;99.90
25248;DHT22;13191;47.472;11.214;2023-03-03T03:32:33;2.50;99.90
25248;DHT22;13191;47.472;11.214;2023-03-03T03:34:58;2.50;99.90
25248;DHT22;13191;47.472;11.214;2023-03-03T03:37:24;2.50;99.90
25248;DHT22;13191;47.472;11.214;2023-03-03T03:39:49;2.50;99.90
25248;DHT22;13191;47.472;11.214;2023-03-03T03:42:15;2.50;99.90
25248;DHT22;13191;47.472;11.214;2023-03-03T03:44:40;2.60;99.90
25248;DHT22;13191;47.472;11.214;2023-03-03T03:47:06;2.50;99.90
25248;DHT22;13191;47.472;11.214;2023-03-03T03:49:31;2.40;99.90
25248;DHT22;13191;47.472;11.214;2023-03-03T03:51:56;2.40;99.90
25248;DHT22;13191;47.472;11.214;2023-03-03T03:54:22;2.40;99.90
25248;DHT22;13191;47.472;11.214;2023-03-03T03:56:47;2.20;99.90
25248;DHT22;13191;47.472;11.214;2023-03-03T03:59:13;2.20;99.90
25248;DHT22;13191;47.472;11.214;2023-03-03T04:01:38;2.20;99.90
25248;DHT22;13191;47.472;11.214;2023-03-03T04:04:04;2.20;99.90
25248;DHT22;13191;47.472;11.214;2023-03-03T04:06:30;2.20;99.90
25248;DHT22;13191;47.472;11.214;2023-03-03T04:08:55;2.30;99.90
25248;DHT22;13191;47.472;11.214;2023-03-03T04:11:21;2.20;99.90
25248;DHT22;13191;47.472;11.214;2023-03-03T04:13:47;2.20;99.90
25248;DHT22;13191;47.472;11.214;2023-03-03T04:16:12;2.30;99.90
25248;DHT22;13191;47.472;11.214;2023-03-03T04:18:38;2.30;99.90
25248;DHT22;13191;47.472;11.214;2023-03-03T04:21:04;2.30;99.90
25248;DHT22;13191;47.472;11.214;2023-03-03T04:23:29;2.40;99.90
25248;DHT22;13191;47.472;11.214;2023-03-03T04:25:55;2.50;99.90
25248;DHT22;13191;47.472;11.214;2023-03-03T04:28:20;2.50;99.90
25248;DHT22;13191;47.472;11.214;2023-03-03T04:30:46;2.50;99.90
25248;DHT22;13191;47.472;11.214;2023-03-03T04:33:12;2.50;99.90
25248;DHT22;13191;47.472;11.214;2023-03-03T04:35:37;2.60;99.90
25248;DHT22;13191;47.472;11.214;2023-03-03T04:38:03;2.60;99.90
25248;DHT22;13191;47.472;11.214;2023-03-03T04:40:30;2.60;99.90
25248;DHT22;13191;47.472;11.214;2023-03-03T04:42:55;2.60;99.90
25248;DHT22;13191;47.472;11.214;2023-03-03T04:45:21;2.60;99.90
25248;DHT22;13191;47.472;11.214;2023-03-03T04:47:46;2.70;99.90
25248;DHT22;13191;47.472;11.214;2023-03-03T04:50:11;2.80;99.90
25248;DHT22;13191;47.472;11.214;2023-03-03T04:52:37;2.80;99.90
25248;DHT22;13191;47.472;11.214;2023-03-03T04:55:03;2.70;99.90
25248;DHT22;13191;47.472;11.214;2023-03-03T04:57:28;2.70;99.90
25248;DHT22;13191;47.472;11.214;2023-03-03T04:59:54;2.70;99.90
25248;DHT22;13191;47.472;11.214;2023-03-03T05:02:20;2.80;99.90
25248;DHT22;13191;47.472;11.214;2023-03-03T05:04:46;2.80;99.90
25248;DHT22;13191;47.472;11.214;2023-03-03T05:07:11;2.80;99.90
25248;DHT22;13191;47.472;11.214;2023-03-03T05:09:37;2.80;99.90
25248;DHT22;13191;47.472;11.214;2023-03-03T05:12:02;2.80;99.90
25248;DHT22;13191;47.472;11.214;2023-03-03T05:14:28;2.80;99.90
25248;DHT22;13191;47.472;11.214;2023-03-03T05:16:53;2.80;99.90
25248;DHT22;13191;47.472;11.214;2023-03-03T05:19:19;2.80;99.90
25248;DHT22;13191;47.472;11.214;2023-03-03T05:21:44;2.80;99.90
25248;DHT22;13191;47.472;11.214;2023-03-03T05:24:10;2.90;99.90
25248;DHT22;13191;47.472;11.214;2023-03-03T05:26:36;2.90;99.90
25248;DHT22;13191;47.472;11.214;2023-03-03T05:29:02;2.90;99.90
25248;DHT22;13191;47.472;11.214;2023-03-03T05:31:27;2.90;99.90
25248;DHT22;13191;47.472;11.214;2023-03-03T05:33:53;2.80;99.90
25248;DHT22;13191;47.472;11.214;2023-03-03T05:36:18;2.70;99.90
25248;DHT22;13191;47.472;11.214;2023-03-03T05:38:44;2.60;99.90
25248;DHT22;13191;47.472;11.214;2023-03-03T05:41:09;2.60;99.90
25248;DHT22;13191;47.472;11.214;2023-03-03T05:43:35;2.60;99.90
25248;DHT22;13191;47.472;11.214;2023-03-03T05:46:01;2.60;99.90
25248;DHT22;13191;47.472;11.214;2023-03-03T05:48:27;2.60;99.90
25248;DHT22;13191;47.472;11.214;2023-03-03T05:50:52;2.60;99.90
25248;DHT22;13191;47.472;11.214;2023-03-03T05:53:18;2.60;99.90
25248;DHT22;13191;47.472;11.214;2023-03-03T05:55:43;2.70;99.90
25248;DHT22;13191;47.472;11.214;2023-03-03T05:58:09;2.70;99.90
25248;DHT22;13191;47.472;11.214;2023-03-03T06:00:34;2.80;99.90
25248;DHT22;13191;47.472;11.214;2023-03-03T06:03:00;2.80;99.90
25248;DHT22;13191;47.472;11.214;2023-03-03T06:05:25;2.90;99.90
25248;DHT22;13191;47.472;11.214;2023-03-03T06:07:51;2.90;99.90
25248;DHT22;13191;47.472;11.214;2023-03-03T06:10:16;2.90;99.90
25248;DHT22;13191;47.472;11.214;2023-03-03T06:12:42;2.90;99.90
25248;DHT22;13191;47.472;11.214;2023-03-03T06:15:08;2.90;99.90
25248;DHT22;13191;47.472;11.214;2023-03-03T06:17:34;2.90;99.90
25248;DHT22;13191;47.472;11.214;2023-03-03T06:20:00;2.90;99.90
25248;DHT22;13191;47.472;11.214;2023-03-03T06:22:25;3.00;99.90
25248;DHT22;13191;47.472;11.214;2023-03-03T06:24:51;3.00;99.90
25248;DHT22;13191;47.472;11.214;2023-03-03T06:27:17;3.10;99.90
25248;DHT22;13191;47.472;11.214;2023-03-03T06:29:42;3.10;99.90
25248;DHT22;13191;47.472;11.214;2023-03-03T06:32:08;3.10;99.90
25248;DHT22;13191;47.472;11.214;2023-03-03T06:34:33;3.10;99.90
25248;DHT22;13191;47.472;11.214;2023-03-03T06:36:59;3.10;99.90
25248;DHT22;13191;47.472;11.214;2023-03-03T06:39:24;3.00;99.90
25248;DHT22;13191;47.472;11.214;2023-03-03T06:41:50;3.00;99.90
25248;DHT22;13191;47.472;11.214;2023-03-03T06:44:15;3.10;99.90
25248;DHT22;13191;47.472;11.214;2023-03-03T06:46:41;3.10;99.90
25248;DHT22;13191;47.472;11.214;2023-03-03T06:49:06;3.10;99.90
25248;DHT22;13191;47.472;11.214;2023-03-03T06:51:33;3.10;99.90
25248;DHT22;13191;47.472;11.214;2023-03-03T06:54:05;3.10;99.90
25248;DHT22;13191;47.472;11.214;2023-03-03T06:56:32;3.00;99.90
25248;DHT22;13191;47.472;11.214;2023-03-03T06:58:59;3.00;99.90
25248;DHT22;13191;47.472;11.214;2023-03-03T07:01:27;3.00;99.90
25248;DHT22;13191;47.472;11.214;2023-03-03T07:03:55;3.00;99.90
25248;DHT22;13191;47.472;11.214;2023-03-03T07:06:21;3.00;99.90
25248;DHT22;13191;47.472;11.214;2023-03-03T07:08:48;3.10;99.90
25248;DHT22;13191;47.472;11.214;2023-03-03T07:11:15;3.10;99.90
25248;DHT22;13191;47.472;11.214;2023-03-03T07:13:43;3.10;99.90
25248;DHT22;13191;47.472;11.214;2023-03-03T07:16:10;3.20;99.90
25248;DHT22;13191;47.472;11.214;2023-03-03T07:18:47;3.20;99.90
25248;DHT22;13191;47.472;11.214;2023-03-03T07:21:16;3.20;99.90
25248;DHT22;13191;47.472;11.214;2023-03-03T07:23:42;3.30;99.90
25248;DHT22;13191;47.472;11.214;2023-03-03T07:26:12;3.30;99.90
25248;DHT22;13191;47.472;11.214;2023-03-03T07:28:41;3.30;99.90
25248;DHT22;13191;47.472;11.214;2023-03-03T07:33:53;3.40;99.90
25248;DHT22;13191;47.472;11.214;2023-03-03T07:36:29;3.40;99.90
25248;DHT22;13191;47.472;11.214;2023-03-03T07:38:59;3.40;99.90
25248;DHT22;13191;47.472;11.214;2023-03-03T07:41:25;3.40;99.90
25248;DHT22;13191;47.472;11.214;2023-03-03T07:43:52;3.50;99.90
25248;DHT22;13191;47.472;11.214;2023-03-03T07:46:35;3.50;99.90
25248;DHT22;13191;47.472;11.214;2023-03-03T07:49:32;3.50;99.90
25248;DHT22;13191;47.472;11.214;2023-03-03T07:51:53;3.70;99.90
25248;DHT22;13191;47.472;11.214;2023-03-03T07:54:30;3.70;99.90
25248;DHT22;13191;47.472;11.214;2023-03-03T07:57:01;3.70;99.90
25248;DHT22;13191;47.472;11.214;2023-03-03T07:59:30;3.70;99.90
25248;DHT22;13191;47.472;11.214;2023-03-03T08:01:59;3.70;99.90
25248;DHT22;13191;47.472;11.214;2023-03-03T08:04:40;3.70;99.90
25248;DHT22;13191;47.472;11.214;2023-03-03T08:07:15;3.70;99.90
25248;DHT22;13191;47.472;11.214;2023-03-03T08:15:00;3.60;99.90
25248;DHT22;13191;47.472;11.214;2023-03-03T08:17:35;3.80;99.90
25248;DHT22;13191;47.472;11.214;2023-03-03T08:20:09;3.70;99.90
25248;DHT22;13191;47.472;11.214;2023-03-03T08:22:48;3.80;99.90
25248;DHT22;13191;47.472;11.214;2023-03-03T08:25:14;3.80;99.90
25248;DHT22;13191;47.472;11.214;2023-03-03T08:27:39;3.80;99.90
25248;DHT22;13191;47.472;11.214;2023-03-03T08:30:05;3.70;99.90
25248;DHT22;13191;47.472;11.214;2023-03-03T08:32:30;3.80;99.90
25248;DHT22;13191;47.472;11.214;2023-03-03T08:34:56;3.80;99.90
25248;DHT22;13191;47.472;11.214;2023-03-03T08:37:21;3.80;99.90
25248;DHT22;13191;47.472;11.214;2023-03-03T08:39:47;3.90;99.90
25248;DHT22;13191;47.472;11.214;2023-03-03T08:42:12;4.00;99.90
25248;DHT22;13191;47.472;11.214;2023-03-03T08:44:38;4.00;99.90
25248;DHT22;13191;47.472;11.214;2023-03-03T08:47:03;4.00;99.90
25248;DHT22;13191;47.472;11.214;2023-03-03T08:49:29;4.10;99.90
25248;DHT22;13191;47.472;11.214;2023-03-03T08:51:54;4.10;99.90
25248;DHT22;13191;47.472;11.214;2023-03-03T08:54:21;4.10;99.90
25248;DHT22;13191;47.472;11.214;2023-03-03T08:56:46;4.20;99.90
25248;DHT22;13191;47.472;11.214;2023-03-03T08:59:12;4.20;99.90
25248;DHT22;13191;47.472;11.214;2023-03-03T09:01:38;4.20;99.90
25248;DHT22;13191;47.472;11.214;2023-03-03T09:04:09;4.20;99.90
25248;DHT22;13191;47.472;11.214;2023-03-03T09:06:34;4.30;99.90
25248;DHT22;13191;47.472;11.214;2023-03-03T09:09:00;4.30;99.90
25248;DHT22;13191;47.472;11.214;2023-03-03T09:11:26;4.30;99.90
25248;DHT22;13191;47.472;11.214;2023-03-03T09:14:03;4.30;99.90
25248;DHT22;13191;47.472;11.214;2023-03-03T09:16:32;4.40;99.90
25248;DHT22;13191;47.472;11.214;2023-03-03T09:18:59;4.40;99.90
25248;DHT22;13191;47.472;11.214;2023-03-03T09:21:31;4.40;99.90
25248;DHT22;13191;47.472;11.214;2023-03-03T09:23:58;4.50;99.90
25248;DHT22;13191;47.472;11.214;2023-03-03T09:26:57;4.50;99.90
25248;DHT22;13191;47.472;11.214;2023-03-03T09:34:41;4.20;99.90
25248;DHT22;13191;47.472;11.214;2023-03-03T09:37:23;4.10;99.90
25248;DHT22;13191;47.472;11.214;2023-03-03T09:39:50;4.00;99.90
25248;DHT22;13191;47.472;11.214;2023-03-03T09:47:40;3.80;99.90
25248;DHT22;13191;47.472;11.214;2023-03-03T10:06:26;3.90;99.90
25248;DHT22;13191;47.472;11.214;2023-03-03T10:11:32;3.80;99.90
25248;DHT22;13191;47.472;11.214;2023-03-03T10:19:34;3.90;99.90
25248;DHT22;13191;47.472;11.214;2023-03-03T10:24:29;4.00;99.90
25248;DHT22;13191;47.472;11.214;2023-03-03T10:27:02;4.10;99.90
25248;DHT22;13191;47.472;11.214;2023-03-03T10:29:30;4.20;99.90
25248;DHT22;13191;47.472;11.214;2023-03-03T10:32:38;4.20;99.90
25248;DHT22;13191;47.472;11.214;2023-03-03T10:38:01;4.30;99.90
25248;DHT22;13191;47.472;11.214;2023-03-03T10:40:34;4.40;99.90
25248;DHT22;13191;47.472;11.214;2023-03-03T10:45:59;4.40;99.90
25248;DHT22;13191;47.472;11.214;2023-03-03T10:48:29;4.40;99.90
25248;DHT22;13191;47.472;11.214;2023-03-03T10:53:43;4.40;99.90
25248;DHT22;13191;47.472;11.214;2023-03-03T10:58:43;4.40;99.90
25248;DHT22;13191;47.472;11.214;2023-03-03T11:11:34;4.60;99.90
25248;DHT22;13191;47.472;11.214;2023-03-03T11:16:51;4.80;99.90
25248;DHT22;13191;47.472;11.214;2023-03-03T11:27:17;4.90;99.90
25248;DHT22;13191;47.472;11.214;2023-03-03T11:35:15;5.20;99.90
25248;DHT22;13191;47.472;11.214;2023-03-03T11:37:57;5.30;99.90
25248;DHT22;13191;47.472;11.214;2023-03-03T11:40:26;5.30;99.90
25248;DHT22;13191;47.472;11.214;2023-03-03T11:45:33;5.60;99.90
25248;DHT22;13191;47.472;11.214;2023-03-03T11:48:02;5.60;99.90
25248;DHT22;13191;47.472;11.214;2023-03-03T11:50:34;5.80;99.90
25248;DHT22;13191;47.472;11.214;2023-03-03T11:55:35;5.80;99.90
25248;DHT22;13191;47.472;11.214;2023-03-03T12:06:12;6.30;99.90
25248;DHT22;13191;47.472;11.214;2023-03-03T12:08:44;6.30;99.90
25248;DHT22;13191;47.472;11.214;2023-03-03T12:11:24;6.50;99.90
25248;DHT22;13191;47.472;11.214;2023-03-03T12:21:33;6.70;99.90
25248;DHT22;13191;47.472;11.214;2023-03-03T12:24:11;6.70;99.90
25248;DHT22;13191;47.472;11.214;2023-03-03T12:26:54;6.80;99.90
25248;DHT22;13191;47.472;11.214;2023-03-03T12:29:26;6.80;99.90
25248;DHT22;13191;47.472;11.214;2023-03-03T12:35:29;6.90;99.90
25248;DHT22;13191;47.472;11.214;2023-03-03T12:40:06;7.00;99.90
25248;DHT22;13191;47.472;11.214;2023-03-03T12:42:36;7.00;99.90
25248;DHT22;13191;47.472;11.214;2023-03-03T12:47:49;7.10;99.90
25248;DHT22;13191;47.472;11.214;2023-03-03T12:50:22;7.10;99.90
25248;DHT22;13191;47.472;11.214;2023-03-03T12:53:01;7.10;99.90
25248;DHT22;13191;47.472;11.214;2023-03-03T12:55:41;7.10;99.90
25248;DHT22;13191;47.472;11.214;2023-03-03T12:58:13;7.10;99.90
25248;DHT22;13191;47.472;11.214;2023-03-03T13:00:42;7.10;99.90
25248;DHT22;13191;47.472;11.214;2023-03-03T13:05:50;7.20;99.90
25248;DHT22;13191;47.472;11.214;2023-03-03T13:08:26;7.20;99.90
25248;DHT22;13191;47.472;11.214;2023-03-03T13:10:59;7.20;99.90
25248;DHT22;13191;47.472;11.214;2023-03-03T13:13:49;7.20;99.90
25248;DHT22;13191;47.472;11.214;2023-03-03T13:16:13;7.20;99.90
25248;DHT22;13191;47.472;11.214;2023-03-03T13:24:21;7.30;99.90
25248;DHT22;13191;47.472;11.214;2023-03-03T13:26:53;7.40;99.90
25248;DHT22;13191;47.472;11.214;2023-03-03T13:29:36;7.40;99.90
25248;DHT22;13191;47.472;11.214;2023-03-03T13:34:54;7.50;99.90
25248;DHT22;13191;47.472;11.214;2023-03-03T13:39:55;7.50;99.90
25248;DHT22;13191;47.472;11.214;2023-03-03T13:44:53;7.50;99.90
25248;DHT22;13191;47.472;11.214;2023-03-03T13:47:22;7.50;99.90
25248;DHT22;13191;47.472;11.214;2023-03-03T13:52:36;7.40;99.90
25248;DHT22;13191;47.472;11.214;2023-03-03T13:57:49;7.40;99.90
25248;DHT22;13191;47.472;11.214;2023-03-03T14:02:46;7.50;99.90
25248;DHT22;13191;47.472;11.214;2023-03-03T14:05:17;7.50;99.90
25248;DHT22;13191;47.472;11.214;2023-03-03T14:08:02;7.50;99.90
25248;DHT22;13191;47.472;11.214;2023-03-03T14:10:38;7.50;99.90
25248;DHT22;13191;47.472;11.214;2023-03-03T14:13:10;7.50;99.90
25248;DHT22;13191;47.472;11.214;2023-03-03T14:20:52;7.50;99.90
25248;DHT22;13191;47.472;11.214;2023-03-03T14:23:20;7.50;99.90
25248;DHT22;13191;47.472;11.214;2023-03-03T14:25:52;7.50;99.90
25248;DHT22;13191;47.472;11.214;2023-03-03T14:28:18;7.40;99.90
25248;DHT22;13191;47.472;11.214;2023-03-03T14:30:44;7.40;99.90
25248;DHT22;13191;47.472;11.214;2023-03-03T14:35:36;7.40;99.90
25248;DHT22;13191;47.472;11.214;2023-03-03T14:38:05;7.40;99.90
25248;DHT22;13191;47.472;11.214;2023-03-03T14:40:35;7.40;99.90
25248;DHT22;13191;47.472;11.214;2023-03-03T14:43:04;7.40;99.90
25248;DHT22;13191;47.472;11.214;2023-03-03T14:47:56;7.50;99.90
25248;DHT22;13191;47.472;11.214;2023-03-03T14:55:51;7.20;99.90
25248;DHT22;13191;47.472;11.214;2023-03-03T14:58:28;7.10;99.90
25248;DHT22;13191;47.472;11.214;2023-03-03T15:01:20;7.00;99.90
25248;DHT22;13191;47.472;11.214;2023-03-03T15:03:45;6.80;99.90
25248;DHT22;13191;47.472;11.214;2023-03-03T15:06:12;6.60;99.90
25248;DHT22;13191;47.472;11.214;2023-03-03T15:08:50;6.60;99.90
25248;DHT22;13191;47.472;11.214;2023-03-03T15:13:41;6.40;99.90
25248;DHT22;13191;47.472;11.214;2023-03-03T15:16:17;6.40;99.90
25248;DHT22;13191;47.472;11.214;2023-03-03T15:21:40;6.20;99.90
25248;DHT22;13191;47.472;11.214;2023-03-03T15:26:40;5.90;99.90
25248;DHT22;13191;47.472;11.214;2023-03-03T15:37:03;5.30;99.90
25248;DHT22;13191;47.472;11.214;2023-03-03T15:42:17;5.20;99.90
25248;DHT22;13191;47.472;11.214;2023-03-03T15:44:50;5.10;99.90
25248;DHT22;13191;47.472;11.214;2023-03-03T15:47:33;5.10;99.90
25248;DHT22;13191;47.472;11.214;2023-03-03T15:50:23;5.20;99.90
25248;DHT22;13191;47.472;11.214;2023-03-03T15:52:54;5.10;99.90
25248;DHT22;13191;47.472;11.214;2023-03-03T16:03:09;4.90;99.90
25248;DHT22;13191;47.472;11.214;2023-03-03T16:06:10;4.80;99.90
25248;DHT22;13191;47.472;11.214;2023-03-03T16:08:44;4.70;99.90
25248;DHT22;13191;47.472;11.214;2023-03-03T16:18:55;4.50;99.90
25248;DHT22;13191;47.472;11.214;2023-03-03T16:23:48;4.50;99.90
25248;DHT22;13191;47.472;11.214;2023-03-03T16:26:30;4.50;99.90
25248;DHT22;13191;47.472;11.214;2023-03-03T16:31:50;4.60;99.90
25248;DHT22;13191;47.472;11.214;2023-03-03T16:37:02;4.70;99.90
25248;DHT22;13191;47.472;11.214;2023-03-03T16:41:59;4.70;99.90
25248;DHT22;13191;47.472;11.214;2023-03-03T16:46:58;4.70;99.90
25248;DHT22;13191;47.472;11.214;2023-03-03T16:49:31;4.80;99.90
25248;DHT22;13191;47.472;11.214;2023-03-03T16:52:02;4.60;99.90
25248;DHT22;13191;47.472;11.214;2023-03-03T16:57:22;4.60;99.90
25248;DHT22;13191;47.472;11.214;2023-03-03T16:59:54;4.50;99.90
25248;DHT22;13191;47.472;11.214;2023-03-03T17:02:46;4.50;99.90
25248;DHT22;13191;47.472;11.214;2023-03-03T17:10:20;4.60;99.90
25248;DHT22;13191;47.472;11.214;2023-03-03T17:12:52;4.60;99.90
25248;DHT22;13191;47.472;11.214;2023-03-03T17:17:51;4.50;99.90
25248;DHT22;13191;47.472;11.214;2023-03-03T17:33:40;4.20;99.90
25248;DHT22;13191;47.472;11.214;2023-03-03T17:38:37;4.10;99.90
25248;DHT22;13191;47.472;11.214;2023-03-03T17:41:08;4.10;99.90
25248;DHT22;13191;47.472;11.214;2023-03-03T17:43:40;4.00;99.90
25248;DHT22;13191;47.472;11.214;2023-03-03T17:46:17;3.90;99.90
25248;DHT22;13191;47.472;11.214;2023-03-03T17:49:06;3.90;99.90
25248;DHT22;13191;47.472;11.214;2023-03-03T17:51:36;3.80;99.90
25248;DHT22;13191;47.472;11.214;2023-03-03T17:56:42;3.80;99.90
25248;DHT22;13191;47.472;11.214;2023-03-03T18:04:29;3.70;99.90
25248;DHT22;13191;47.472;11.214;2023-03-03T18:14:44;3.60;99.90
25248;DHT22;13191;47.472;11.214;2023-03-03T18:19:51;3.60;99.90
25248;DHT22;13191;47.472;11.214;2023-03-03T18:22:31;3.50;99.90
25248;DHT22;13191;47.472;11.214;2023-03-03T18:25:13;3.50;99.90
25248;DHT22;13191;47.472;11.214;2023-03-03T18:27:39;3.50;99.90
25248;DHT22;13191;47.472;11.214;2023-03-03T18:35:26;3.30;99.90
25248;DHT22;13191;47.472;11.214;2023-03-03T18:37:52;3.20;99.90
25248;DHT22;13191;47.472;11.214;2023-03-03T18:40:28;3.10;99.90
25248;DHT22;13191;47.472;11.214;2023-03-03T18:42:54;3.00;99.90
25248;DHT22;13191;47.472;11.214;2023-03-03T18:47:58;2.80;99.90
25248;DHT22;13191;47.472;11.214;2023-03-03T18:55:55;2.80;99.90
25248;DHT22;13191;47.472;11.214;2023-03-03T18:58:34;2.80;99.90
25248;DHT22;13191;47.472;11.214;2023-03-03T19:04:17;2.90;99.90
25248;DHT22;13191;47.472;11.214;2023-03-03T19:06:30;2.80;99.90
25248;DHT22;13191;47.472;11.214;2023-03-03T19:08:57;2.80;99.90
25248;DHT22;13191;47.472;11.214;2023-03-03T19:11:42;2.80;99.90
25248;DHT22;13191;47.472;11.214;2023-03-03T19:16:53;2.90;99.90
25248;DHT22;13191;47.472;11.214;2023-03-03T19:19:20;3.00;99.90
25248;DHT22;13191;47.472;11.214;2023-03-03T19:21:48;3.00;99.90
25248;DHT22;13191;47.472;11.214;2023-03-03T19:26:52;3.00;99.90
25248;DHT22;13191;47.472;11.214;2023-03-03T19:36:52;2.80;99.90
25248;DHT22;13191;47.472;11.214;2023-03-03T19:47:03;2.80;99.90
25248;DHT22;13191;47.472;11.214;2023-03-03T19:51:59;2.80;99.90
25248;DHT22;13191;47.472;11.214;2023-03-03T19:56:51;2.50;99.90
25248;DHT22;13191;47.472;11.214;2023-03-03T19:59:23;2.50;99.90
25248;DHT22;13191;47.472;11.214;2023-03-03T20:07:22;2.20;99.90
25248;DHT22;13191;47.472;11.214;2023-03-03T20:12:33;2.00;99.90
25248;DHT22;13191;47.472;11.214;2023-03-03T20:15:05;2.00;99.90
25248;DHT22;13191;47.472;11.214;2023-03-03T20:24:57;2.10;99.90
25248;DHT22;13191;47.472;11.214;2023-03-03T20:32:32;2.30;99.90
25248;DHT22;13191;47.472;11.214;2023-03-03T20:40:30;2.30;99.90
25248;DHT22;13191;47.472;11.214;2023-03-03T20:45:32;2.30;99.90
25248;DHT22;13191;47.472;11.214;2023-03-03T21:00:56;2.30;99.90
25248;DHT22;13191;47.472;11.214;2023-03-03T21:03:31;2.40;99.90
25248;DHT22;13191;47.472;11.214;2023-03-03T21:05:59;2.40;99.90
25248;DHT22;13191;47.472;11.214;2023-03-03T21:11:10;2.50;99.90
25248;DHT22;13191;47.472;11.214;2023-03-03T21:13:40;2.60;99.90
25248;DHT22;13191;47.472;11.214;2023-03-03T21:18:32;2.50;99.90
25248;DHT22;13191;47.472;11.214;2023-03-03T21:20:57;2.50;99.90
25248;DHT22;13191;47.472;11.214;2023-03-03T21:23:23;2.50;99.90